createdAt,value
2023-01-11T00:00:56.741Z,61.50
2023-01-11T00:03:23.690Z,63.43
2023-01-11T00:05:55.360Z,62.53
2023-01-11T00:08:24.506Z,63.70
2023-01-11T00:10:51.735Z,56.63
2023-01-11T00:13:19.689Z,68.00
2023-01-11T00:15:47.069Z,62.85
2023-01-11T00:18:14.035Z,66.37
2023-01-11T00:20:42.179Z,67.37
2023-01-11T00:23:09.248Z,66.17
2023-01-11T00:25:37.703Z,69.43
2023-01-11T00:28:05.581Z,70.50
2023-01-11T00:30:33.008Z,69.30
2023-01-11T00:33:00.695Z,73.70
2023-01-11T00:35:29.526Z,78.27
2023-01-11T00:37:56.494Z,75.32
2023-01-11T00:40:24.368Z,76.43
2023-01-11T00:43:10.089Z,75.30
2023-01-11T00:45:55.979Z,60.57
2023-01-11T00:48:22.960Z,67.83
2023-01-11T00:50:53.929Z,71.23
2023-01-11T00:53:20.891Z,73.47
2023-01-11T00:55:48.048Z,69.83
2023-01-11T00:58:15.959Z,72.03
2023-01-11T01:00:43.225Z,67.77
2023-01-11T01:03:10.166Z,70.33
2023-01-11T01:05:38.853Z,71.37
2023-01-11T01:08:06.221Z,72.57
2023-01-11T01:10:33.647Z,67.63
2023-01-11T01:13:19.264Z,72.53
2023-01-11T01:15:46.594Z,73.77
2023-01-11T01:18:13.493Z,68.97
2023-01-11T01:20:40.873Z,75.90
2023-01-11T01:23:07.957Z,76.70
2023-01-11T01:25:37.215Z,66.17
2023-01-11T01:28:04.309Z,70.35
2023-01-11T01:30:31.553Z,70.40
2023-01-11T01:32:58.436Z,63.90
2023-01-11T01:35:25.647Z,73.27
2023-01-11T01:37:52.811Z,77.47
2023-01-11T01:40:20.130Z,79.93
2023-01-11T01:42:46.963Z,73.47
2023-01-11T01:45:24.054Z,76.13
2023-01-11T01:47:59.342Z,80.20
2023-01-11T01:50:32.698Z,76.80
2023-01-11T01:53:10.131Z,74.33
2023-01-11T01:55:41.366Z,83.63
2023-01-11T01:58:13.957Z,78.77
2023-01-11T02:00:43.514Z,81.87
2023-01-11T02:05:41.244Z,79.03
2023-01-11T02:08:14.192Z,84.57
2023-01-11T02:10:41.675Z,79.87
2023-01-11T02:13:12.262Z,90.70
2023-01-11T02:15:39.514Z,92.10
2023-01-11T02:18:11.899Z,87.63
2023-01-11T02:21:00.745Z,97.23
2023-01-11T02:23:36.796Z,99.07
2023-01-11T02:26:06.872Z,91.87
2023-01-11T02:29:25.176Z,91.80
2023-01-11T02:31:56.839Z,93.97
2023-01-11T02:34:44.736Z,94.83
2023-01-11T02:37:37.751Z,112.15
2023-01-11T02:40:16.524Z,98.53
2023-01-11T02:45:52.611Z,97.60
2023-01-11T02:51:05.435Z,120.37
2023-01-11T02:53:43.526Z,117.43
2023-01-11T02:56:14.708Z,104.67
2023-01-11T02:58:45.339Z,121.93
2023-01-11T03:01:13.338Z,108.87
2023-01-11T03:03:40.642Z,119.32
2023-01-11T03:06:12.148Z,142.43
2023-01-11T03:08:48.064Z,152.27
2023-01-11T03:11:45.693Z,141.03
2023-01-11T03:14:42.922Z,144.57
2023-01-11T03:17:21.833Z,147.90
2023-01-11T03:22:56.068Z,167.03
2023-01-11T03:25:39.405Z,179.70
2023-01-11T03:28:06.217Z,165.47
2023-01-11T03:30:42.323Z,166.07
2023-01-11T03:33:22.517Z,160.07
2023-01-11T03:36:01.388Z,160.57
2023-01-11T03:38:38.085Z,152.20
2023-01-11T03:41:11.723Z,125.00
2023-01-11T03:43:40.560Z,157.70
2023-01-11T03:48:54.008Z,172.30
2023-01-11T03:51:27.931Z,172.30
2023-01-11T03:53:59.442Z,210.17
2023-01-11T03:56:36.772Z,222.60
2023-01-11T03:59:03.869Z,211.80
2023-01-11T04:01:31.311Z,209.70
2023-01-11T04:03:58.227Z,184.90
2023-01-11T04:06:25.883Z,302.93
2023-01-11T04:08:52.776Z,214.70
2023-01-11T04:11:19.935Z,204.33
2023-01-11T04:13:46.851Z,236.07
2023-01-11T04:16:14.005Z,182.40
2023-01-11T04:18:41.277Z,183.73
2023-01-11T04:21:08.451Z,200.77
2023-01-11T04:23:35.799Z,149.13
2023-01-11T04:26:03.022Z,118.70
2023-01-11T04:28:29.843Z,70.33
2023-01-11T04:30:56.960Z,72.07
2023-01-11T04:33:23.811Z,63.47
2023-01-11T04:35:51.049Z,57.80
2023-01-11T04:38:18.942Z,58.50
2023-01-11T04:40:48.308Z,62.95
2023-01-11T04:43:15.192Z,52.13
2023-01-11T04:45:42.353Z,50.23
2023-01-11T04:48:09.264Z,54.67
2023-01-11T04:50:36.465Z,52.43
2023-01-11T04:53:03.303Z,54.47
2023-01-11T04:55:30.421Z,50.07
2023-01-11T04:57:57.270Z,50.83
2023-01-11T05:00:24.414Z,50.47
2023-01-11T05:02:51.332Z,50.40
2023-01-11T05:05:18.672Z,56.43
2023-01-11T05:07:45.593Z,50.60
2023-01-11T05:10:12.835Z,50.10
2023-01-11T05:12:39.769Z,49.93
2023-01-11T05:15:07.797Z,56.23
2023-01-11T05:17:34.639Z,55.33
2023-01-11T05:20:01.819Z,57.97
2023-01-11T05:22:28.721Z,53.63
2023-01-11T05:24:55.971Z,60.93
2023-01-11T05:27:22.834Z,58.57
2023-01-11T05:29:50.065Z,52.90
2023-01-11T05:32:16.906Z,57.37
2023-01-11T05:34:44.170Z,61.63
2023-01-11T05:37:11.096Z,71.03
2023-01-11T05:39:38.335Z,74.40
2023-01-11T05:42:05.279Z,67.90
2023-01-11T05:44:50.953Z,61.90
2023-01-11T05:47:17.881Z,61.53
2023-01-11T05:49:45.089Z,81.30
2023-01-11T05:52:12.455Z,66.00
2023-01-11T05:54:39.737Z,84.83
2023-01-11T05:57:10.700Z,69.87
2023-01-11T05:59:38.084Z,80.57
2023-01-11T06:02:05.203Z,203.47
2023-01-11T06:04:32.513Z,361.13
2023-01-11T06:06:59.396Z,171.47
2023-01-11T06:09:26.807Z,182.30
2023-01-11T06:11:53.703Z,175.23
2023-01-11T06:14:20.829Z,243.07
2023-01-11T06:16:47.859Z,187.30
2023-01-11T06:19:15.112Z,268.30
2023-01-11T06:21:42.021Z,420.37
2023-01-11T06:24:09.313Z,112.33
2023-01-11T06:26:36.204Z,70.97
2023-01-11T06:29:03.444Z,90.87
2023-01-11T06:31:30.247Z,75.97
2023-01-11T06:33:57.385Z,72.80
2023-01-11T06:36:24.314Z,65.80
2023-01-11T06:38:52.511Z,70.90
2023-01-11T06:41:19.947Z,113.23
2023-01-11T06:43:47.173Z,83.80
2023-01-11T06:46:15.852Z,92.73
2023-01-11T06:48:44.045Z,91.95
2023-01-11T06:51:12.222Z,78.87
2023-01-11T06:53:41.119Z,63.53
2023-01-11T06:56:10.978Z,76.60
2023-01-11T06:58:38.514Z,86.53
2023-01-11T07:01:05.959Z,85.50
2023-01-11T07:03:33.336Z,83.63
2023-01-11T07:06:02.256Z,289.10
2023-01-11T07:10:56.505Z,365.47
2023-01-11T07:13:23.719Z,111.10
2023-01-11T07:15:54.228Z,260.97
2023-01-11T07:18:22.125Z,363.00
2023-01-11T07:20:50.951Z,225.57
2023-01-11T07:25:44.981Z,217.70
2023-01-11T07:28:12.250Z,186.83
2023-01-11T07:30:56.279Z,110.33
2023-01-11T07:33:25.142Z,80.37
2023-01-11T07:35:52.079Z,84.53
2023-01-11T07:38:19.472Z,58.77
2023-01-11T07:40:46.539Z,49.00
2023-01-11T07:43:19.446Z,40.23
2023-01-11T07:45:49.733Z,39.27
2023-01-11T07:48:21.470Z,41.73
2023-01-11T07:50:49.005Z,30.73
2023-01-11T07:53:16.797Z,39.83
2023-01-11T07:55:43.767Z,32.93
2023-01-11T07:58:15.147Z,34.53
2023-01-11T08:00:42.298Z,32.77
2023-01-11T08:03:10.300Z,36.63
2023-01-11T08:05:37.632Z,33.53
2023-01-11T08:08:05.736Z,34.43
2023-01-11T08:10:33.362Z,40.53
2023-01-11T08:13:19.390Z,33.83
2023-01-11T08:15:46.348Z,31.43
2023-01-11T08:18:14.201Z,37.80
2023-01-11T08:20:41.258Z,32.43
2023-01-11T08:23:10.474Z,30.53
2023-01-11T08:25:38.142Z,31.42
2023-01-11T08:28:07.015Z,28.77
2023-01-11T08:30:34.580Z,33.35
2023-01-11T08:33:02.657Z,31.37
2023-01-11T08:35:30.833Z,22.13
2023-01-11T08:37:58.154Z,29.13
2023-01-11T08:40:25.780Z,39.17
2023-01-11T08:42:57.277Z,30.53
2023-01-11T08:45:25.138Z,26.10
2023-01-11T08:47:53.420Z,27.80
2023-01-11T08:50:22.316Z,28.13
2023-01-11T08:52:51.386Z,28.70
2023-01-11T08:55:19.692Z,25.75
2023-01-11T08:57:47.068Z,27.48
2023-01-11T09:00:14.625Z,28.03
2023-01-11T09:02:41.906Z,26.27
2023-01-11T09:05:09.498Z,27.00
2023-01-11T09:07:36.765Z,28.53
2023-01-11T09:10:04.238Z,23.13
2023-01-11T09:12:32.841Z,22.23
2023-01-11T09:15:00.785Z,26.50
2023-01-11T09:17:28.855Z,28.45
2023-01-11T09:19:56.152Z,26.47
2023-01-11T09:22:23.756Z,24.30
2023-01-11T09:24:50.755Z,25.95
2023-01-11T09:27:19.169Z,23.10
2023-01-11T09:29:46.360Z,25.97
2023-01-11T09:32:13.709Z,21.63
2023-01-11T09:34:42.895Z,23.60
2023-01-11T09:37:10.111Z,18.97
2023-01-11T09:39:37.336Z,17.07
2023-01-11T09:42:31.522Z,11.02
2023-01-11T09:45:21.828Z,16.75
2023-01-11T09:48:11.318Z,20.92
2023-01-11T09:50:43.489Z,20.63
2023-01-11T09:53:38.510Z,22.60
2023-01-11T09:56:12.051Z,25.10
2023-01-11T09:58:54.499Z,26.00
2023-01-11T10:01:45.740Z,21.07
2023-01-11T10:04:47.505Z,13.60
2023-01-11T10:07:30.145Z,8.90
2023-01-11T10:18:37.856Z,10.40
2023-01-11T10:19:41.063Z,12.32
2023-01-11T10:22:16.752Z,14.13
2023-01-11T10:24:52.880Z,16.55
2023-01-11T10:27:41.075Z,15.10
2023-01-11T10:30:34.285Z,16.33
2023-01-11T10:33:50.513Z,12.77
2023-01-11T10:36:50.028Z,172.10
2023-01-11T10:39:47.479Z,37.43
2023-01-11T10:42:24.153Z,61.10
2023-01-11T10:45:00.626Z,10.83
2023-01-11T10:47:43.403Z,14.45
2023-01-11T10:50:24.416Z,10.10
2023-01-11T10:52:52.123Z,9.13
2023-01-11T10:55:29.723Z,9.50
2023-01-11T10:58:21.180Z,10.45
2023-01-11T11:00:53.476Z,10.40
2023-01-11T11:03:49.458Z,10.32
2023-01-11T11:06:25.393Z,9.52
2023-01-11T11:09:27.181Z,13.43
2023-01-11T11:12:00.946Z,10.95
2023-01-11T11:14:35.210Z,9.00
2023-01-11T11:17:25.754Z,9.50
2023-01-11T11:19:53.416Z,8.60
2023-01-11T11:22:21.162Z,8.95
2023-01-11T11:25:33.773Z,8.75
2023-01-11T11:28:02.475Z,9.23
2023-01-11T11:30:45.714Z,9.90
2023-01-11T11:33:26.576Z,14.52
2023-01-11T11:36:04.873Z,24.92
2023-01-11T11:38:40.081Z,18.05
2023-01-11T11:41:17.174Z,15.32
2023-01-11T11:43:48.300Z,458.15
2023-01-11T11:46:19.381Z,51.63
2023-01-11T11:49:09.980Z,6.95
2023-01-11T11:51:37.806Z,11.93
2023-01-11T11:54:05.237Z,115.55
2023-01-11T11:56:37.962Z,6.68
2023-01-11T11:59:14.540Z,5.78
2023-01-11T12:01:46.958Z,8.30
2023-01-11T12:04:19.932Z,4.75
2023-01-11T12:07:03.816Z,8.02
2023-01-11T12:09:33.198Z,6.93
2023-01-11T12:12:00.903Z,6.13
2023-01-11T12:14:35.129Z,9.40
2023-01-11T12:17:26.132Z,7.47
2023-01-11T12:19:53.609Z,8.05
2023-01-11T12:22:29.183Z,16.38
2023-01-11T12:25:07.969Z,140.55
2023-01-11T12:27:43.681Z,26.38
2023-01-11T12:30:19.188Z,12.05
2023-01-11T12:33:06.404Z,24.40
2023-01-11T12:35:50.560Z,16.27
2023-01-11T12:38:47.201Z,159.53
2023-01-11T12:41:51.839Z,33.03
2023-01-11T12:44:42.622Z,15.13
2023-01-11T12:47:31.135Z,21.73
2023-01-11T12:50:19.598Z,93.35
2023-01-11T12:52:49.747Z,12.45
2023-01-11T12:55:55.538Z,10.50
2023-01-11T12:58:35.672Z,43.97
2023-01-11T13:01:39.900Z,27.77
2023-01-11T13:04:15.856Z,14.30
2023-01-11T13:07:20.441Z,11.03
2023-01-11T13:09:50.686Z,13.73
2023-01-11T13:12:35.003Z,55.90
2023-01-11T13:15:22.611Z,12.37
2023-01-11T13:17:55.235Z,10.60
2023-01-11T13:20:28.286Z,10.60
2023-01-11T13:23:03.754Z,23.37
2023-01-11T13:25:35.351Z,21.43
2023-01-11T13:28:23.933Z,20.30
2023-01-11T13:30:51.755Z,16.40
2023-01-11T13:33:22.504Z,14.23
2023-01-11T13:35:56.702Z,14.23
2023-01-11T13:38:44.818Z,11.67
2023-01-11T13:41:26.793Z,10.70
2023-01-11T13:44:18.876Z,11.53
2023-01-11T13:47:00.099Z,28.93
2023-01-11T13:50:06.619Z,15.87
2023-01-11T13:53:03.500Z,30.90
2023-01-11T13:55:50.960Z,19.53
2023-01-11T13:58:21.234Z,16.53
2023-01-11T14:00:57.447Z,22.20
2023-01-11T14:03:48.740Z,19.10
2023-01-11T14:06:34.133Z,25.70
2023-01-11T14:09:07.839Z,17.40
2023-01-11T14:11:52.932Z,16.70
2023-01-11T14:14:56.894Z,17.17
2023-01-11T14:17:29.560Z,16.87
2023-01-11T14:19:56.726Z,19.83
2023-01-11T14:22:45.587Z,16.40
2023-01-11T14:28:23.586Z,15.43
2023-01-11T14:31:09.034Z,14.23
2023-01-11T14:33:57.023Z,19.97
2023-01-11T14:36:51.895Z,16.17
2023-01-11T14:39:21.502Z,16.93
2023-01-11T14:42:03.183Z,21.03
2023-01-11T14:44:39.062Z,19.97
2023-01-11T14:47:27.593Z,20.93
2023-01-11T14:50:15.177Z,21.45
2023-01-11T14:52:44.647Z,17.93
2023-01-11T14:58:18.302Z,22.93
2023-01-11T15:00:45.171Z,43.43
2023-01-11T15:03:13.263Z,21.77
2023-01-11T15:06:00.521Z,16.20
2023-01-11T15:08:41.882Z,14.53
2023-01-11T15:11:47.257Z,17.30
2023-01-11T15:14:27.531Z,18.50
2023-01-11T15:17:18.607Z,17.60
2023-01-11T15:19:47.421Z,18.43
2023-01-11T15:22:32.139Z,23.58
2023-01-11T15:25:22.122Z,19.77
2023-01-11T15:27:50.299Z,20.17
2023-01-11T15:30:34.054Z,21.17
2023-01-11T15:33:19.512Z,21.70
2023-01-11T15:35:56.133Z,16.53
2023-01-11T15:38:49.333Z,18.27
2023-01-11T15:42:04.001Z,20.07
2023-01-11T15:44:56.982Z,21.57
2023-01-11T15:47:35.989Z,20.20
2023-01-11T15:50:24.438Z,21.77
2023-01-11T15:53:29.571Z,23.90
2023-01-11T15:56:11.493Z,25.23
2023-01-11T15:58:59.587Z,20.20
2023-01-11T16:01:28.650Z,21.57
2023-01-11T16:04:01.598Z,25.20
2023-01-11T16:06:40.419Z,25.63
2023-01-11T16:12:06.541Z,34.00
2023-01-11T16:14:51.648Z,27.77
2023-01-11T16:17:22.453Z,32.10
2023-01-11T16:19:55.446Z,31.97
2023-01-11T16:22:25.895Z,25.70
2023-01-11T16:24:57.163Z,24.27
2023-01-11T16:27:27.719Z,25.50
2023-01-11T16:29:55.887Z,26.37
2023-01-11T16:32:33.797Z,26.43
2023-01-11T16:35:02.978Z,25.53
2023-01-11T16:37:29.738Z,24.50
2023-01-11T16:40:11.401Z,25.47
2023-01-11T16:42:45.325Z,21.60
2023-01-11T16:45:18.730Z,26.27
2023-01-11T16:48:06.326Z,27.63
2023-01-11T16:50:35.250Z,27.87
2023-01-11T16:53:10.245Z,27.02
2023-01-11T16:55:44.256Z,24.97
2023-01-11T16:58:32.793Z,25.80
2023-01-11T17:01:07.122Z,26.98
2023-01-11T17:03:35.139Z,22.63
2023-01-11T17:06:08.408Z,26.90
2023-01-11T17:08:38.296Z,32.00
2023-01-11T17:11:19.722Z,33.37
2023-01-11T17:14:03.766Z,28.73
2023-01-11T17:16:36.526Z,28.03
2023-01-11T17:19:13.169Z,22.73
2023-01-11T17:21:41.261Z,27.27
2023-01-11T17:24:13.539Z,25.92
2023-01-11T17:26:50.251Z,26.93
2023-01-11T17:29:44.534Z,24.07
2023-01-11T17:32:21.321Z,21.10
2023-01-11T17:34:51.038Z,23.80
2023-01-11T17:37:19.050Z,23.67
2023-01-11T17:39:50.171Z,24.83
2023-01-11T17:42:36.770Z,23.93
2023-01-11T17:45:21.984Z,20.80
2023-01-11T17:47:52.655Z,23.90
2023-01-11T17:50:28.762Z,21.27
2023-01-11T17:53:29.168Z,20.20
2023-01-11T17:56:01.757Z,20.37
2023-01-11T17:58:31.918Z,22.10
2023-01-11T18:01:05.369Z,25.40
2023-01-11T18:03:43.620Z,29.93
2023-01-11T18:06:32.246Z,26.73
2023-01-11T18:09:01.365Z,26.40
2023-01-11T18:11:29.703Z,27.10
2023-01-11T18:13:59.976Z,30.15
2023-01-11T18:16:27.310Z,25.40
2023-01-11T18:18:55.462Z,23.20
2023-01-11T18:21:25.336Z,19.10
2023-01-11T18:24:11.031Z,20.20
2023-01-11T18:26:43.331Z,23.00
2023-01-11T18:29:38.804Z,19.23
2023-01-11T18:32:08.820Z,23.40
2023-01-11T18:34:36.254Z,24.17
2023-01-11T18:37:07.742Z,22.23
2023-01-11T18:39:35.720Z,21.57
2023-01-11T18:42:08.261Z,23.47
2023-01-11T18:44:40.704Z,39.37
2023-01-11T18:47:20.608Z,19.03
2023-01-11T18:49:49.165Z,21.87
2023-01-11T18:52:17.113Z,20.83
2023-01-11T18:54:44.465Z,19.75
2023-01-11T18:57:11.668Z,26.43
2023-01-11T18:59:39.153Z,23.20
2023-01-11T19:02:22.810Z,20.80
2023-01-11T19:04:51.235Z,22.10
2023-01-11T19:07:18.566Z,22.27
2023-01-11T19:09:45.784Z,24.57
2023-01-11T19:12:13.436Z,25.70
2023-01-11T19:14:40.623Z,20.57
2023-01-11T19:17:09.103Z,19.23
2023-01-11T19:19:36.702Z,19.33
2023-01-11T19:22:04.993Z,20.43
2023-01-11T19:24:32.936Z,18.63
2023-01-11T19:26:59.920Z,20.83
2023-01-11T19:29:27.451Z,20.03
2023-01-11T19:31:55.802Z,17.87
2023-01-11T19:34:24.188Z,16.75
2023-01-11T19:36:52.342Z,17.73
2023-01-11T19:39:19.845Z,19.08
2023-01-11T19:41:57.704Z,20.90
2023-01-11T19:44:27.215Z,18.80
2023-01-11T19:49:38.046Z,19.37
2023-01-11T19:52:05.819Z,23.63
2023-01-11T19:54:33.005Z,19.83
2023-01-11T19:56:59.991Z,21.47
2023-01-11T19:59:27.201Z,24.33
2023-01-11T20:01:54.038Z,20.93
2023-01-11T20:04:21.323Z,25.90
2023-01-11T20:06:52.177Z,40.83
2023-01-11T20:09:21.108Z,21.60
2023-01-11T20:11:50.196Z,15.80
2023-01-11T20:14:17.484Z,24.57
2023-01-11T20:16:44.392Z,38.40
2023-01-11T20:19:12.151Z,26.33
2023-01-11T20:21:39.050Z,28.90
2023-01-11T20:24:06.587Z,27.80
2023-01-11T20:26:36.840Z,29.97
2023-01-11T20:29:05.632Z,22.93
2023-01-11T20:31:35.480Z,22.30
2023-01-11T20:34:14.363Z,27.37
2023-01-11T20:36:42.605Z,27.27
2023-01-11T20:39:10.952Z,36.45
2023-01-11T20:41:46.979Z,39.77
2023-01-11T20:44:34.379Z,42.83
2023-01-11T20:47:01.308Z,37.20
2023-01-11T20:49:29.901Z,42.83
2023-01-11T20:51:57.230Z,43.50
2023-01-11T20:54:24.584Z,41.10
2023-01-11T20:56:51.573Z,35.93
2023-01-11T20:59:20.482Z,42.33
2023-01-11T21:01:49.171Z,36.63
2023-01-11T21:04:18.336Z,33.10
2023-01-11T21:06:50.253Z,33.53
2023-01-11T21:09:18.758Z,36.27
2023-01-11T21:11:52.641Z,34.15
2023-01-11T21:14:21.463Z,29.40
2023-01-11T21:16:49.203Z,35.95
2023-01-11T21:19:16.506Z,30.60
2023-01-11T21:21:43.751Z,28.07
2023-01-11T21:24:15.466Z,31.03
2023-01-11T21:26:45.298Z,30.10
2023-01-11T21:29:13.199Z,37.00
2023-01-11T21:31:41.025Z,35.43
2023-01-11T21:34:10.920Z,34.20
2023-01-11T21:36:38.082Z,24.40
2023-01-11T21:39:05.628Z,35.77
2023-01-11T21:41:52.500Z,30.13
2023-01-11T21:44:21.112Z,36.50
2023-01-11T21:46:48.495Z,29.83
2023-01-11T21:49:16.454Z,35.37
2023-01-11T21:51:44.034Z,31.57
2023-01-11T21:54:13.282Z,37.03
2023-01-11T21:56:42.026Z,39.30
2023-01-11T21:59:09.818Z,37.55
2023-01-11T22:01:38.639Z,34.43
2023-01-11T22:06:42.261Z,34.93
2023-01-11T22:09:11.712Z,27.20
2023-01-11T22:14:08.709Z,36.60
2023-01-11T22:16:36.708Z,36.73
2023-01-11T22:19:07.500Z,50.00
2023-01-11T22:21:36.040Z,48.87
2023-01-11T22:24:05.008Z,37.45
2023-01-11T22:26:33.696Z,76.13
2023-01-11T22:31:45.968Z,152.50
2023-01-11T22:34:13.957Z,222.33
2023-01-11T22:36:41.549Z,252.57
2023-01-11T22:39:09.118Z,72.30
2023-01-11T22:41:36.119Z,237.23
2023-01-11T22:44:03.686Z,81.53
2023-01-11T22:46:30.631Z,404.50
2023-01-11T22:48:58.784Z,364.70
2023-01-11T22:51:26.729Z,679.30
2023-01-11T22:53:55.320Z,477.13
2023-01-11T22:56:25.880Z,390.77
2023-01-11T22:58:56.985Z,365.97
2023-01-11T23:01:26.719Z,382.97
2023-01-11T23:03:54.796Z,135.37
2023-01-11T23:06:25.573Z,234.65
2023-01-11T23:08:53.683Z,303.23
2023-01-11T23:11:45.427Z,274.17
2023-01-11T23:14:14.914Z,155.13
2023-01-11T23:16:42.354Z,101.90
2023-01-11T23:19:09.814Z,92.40
2023-01-11T23:21:40.794Z,50.87
2023-01-11T23:24:08.538Z,70.00
2023-01-11T23:26:35.842Z,76.37
2023-01-11T23:29:02.788Z,66.13
2023-01-11T23:31:30.766Z,72.03
2023-01-11T23:34:00.173Z,106.83
2023-01-11T23:36:33.208Z,45.13
2023-01-11T23:39:00.286Z,423.20
2023-01-11T23:41:46.118Z,347.17
2023-01-11T23:44:15.371Z,404.57
2023-01-11T23:47:02.235Z,305.07
2023-01-11T23:49:30.074Z,392.50
2023-01-11T23:51:57.729Z,234.90
2023-01-11T23:54:30.287Z,157.73
2023-01-11T23:56:58.191Z,213.37
2023-01-11T23:59:25.182Z,246.83
